createdAt,value
2018-02-11T00:00:39.414Z,15.00
2018-02-11T00:03:07.868Z,18.92
2018-02-11T00:05:36.233Z,21.05
2018-02-11T00:08:04.631Z,18.85
2018-02-11T00:10:33.012Z,15.05
2018-02-11T00:13:01.379Z,16.02
2018-02-11T00:15:29.797Z,13.90
2018-02-11T00:17:58.178Z,14.30
2018-02-11T00:20:26.552Z,14.52
2018-02-11T00:22:54.921Z,14.27
2018-02-11T00:25:23.282Z,14.02
2018-02-11T00:27:51.716Z,14.52
2018-02-11T00:30:20.092Z,12.45
2018-02-11T00:32:48.644Z,13.85
2018-02-11T00:35:17.005Z,12.93
2018-02-11T00:37:51.916Z,10.90
2018-02-11T00:40:20.294Z,12.40
2018-02-11T00:42:48.668Z,15.00
2018-02-11T00:45:17.039Z,11.77
2018-02-11T00:47:45.450Z,11.98
2018-02-11T00:50:14.159Z,8.25
2018-02-11T00:52:42.522Z,11.35
2018-02-11T00:55:10.902Z,12.30
2018-02-11T00:57:39.275Z,15.90
2018-02-11T01:00:07.632Z,14.45
2018-02-11T01:02:36.036Z,12.70
2018-02-11T01:05:04.427Z,10.48
2018-02-11T01:07:32.953Z,12.23
2018-02-11T01:10:01.335Z,10.18
2018-02-11T01:12:29.711Z,12.13
2018-02-11T01:14:58.231Z,7.30
2018-02-11T01:17:26.590Z,13.43
2018-02-11T01:19:54.945Z,11.15
2018-02-11T01:22:23.330Z,7.95
2018-02-11T01:24:51.717Z,10.18
2018-02-11T01:27:20.124Z,9.23
2018-02-11T01:29:48.495Z,16.87
2018-02-11T01:32:16.855Z,10.70
2018-02-11T01:34:45.250Z,8.23
2018-02-11T01:37:13.593Z,9.05
2018-02-11T01:39:42.054Z,12.13
2018-02-11T01:42:10.416Z,16.80
2018-02-11T01:44:38.784Z,10.07
2018-02-11T01:47:07.144Z,9.68
2018-02-11T01:49:35.554Z,12.13
2018-02-11T01:52:04.271Z,10.43
2018-02-11T01:54:32.641Z,13.50
2018-02-11T01:57:01.005Z,9.07
2018-02-11T01:59:29.403Z,7.85
2018-02-11T02:01:57.773Z,16.30
2018-02-11T02:04:26.143Z,22.23
2018-02-11T02:06:54.491Z,10.40
2018-02-11T02:09:22.832Z,11.23
2018-02-11T02:11:51.215Z,10.60
2018-02-11T02:14:19.661Z,8.02
2018-02-11T02:16:48.021Z,11.38
2018-02-11T02:19:16.381Z,15.80
2018-02-11T02:21:44.758Z,10.48
2018-02-11T02:24:13.122Z,11.50
2018-02-11T02:26:41.640Z,12.88
2018-02-11T02:29:10.001Z,20.17
2018-02-11T02:31:38.355Z,8.25
2018-02-11T02:34:06.714Z,10.30
2018-02-11T02:36:35.067Z,9.57
2018-02-11T02:39:03.592Z,8.20
2018-02-11T02:41:31.950Z,12.60
2018-02-11T02:44:00.343Z,10.00
2018-02-11T02:46:28.737Z,8.18
2018-02-11T02:48:57.121Z,9.80
2018-02-11T02:51:25.550Z,16.87
2018-02-11T02:53:53.924Z,12.85
2018-02-11T02:56:22.295Z,10.45
2018-02-11T02:58:50.655Z,12.35
2018-02-11T03:01:19.051Z,15.95
2018-02-11T03:03:47.597Z,8.57
2018-02-11T03:06:15.952Z,10.27
2018-02-11T03:08:44.313Z,12.77
2018-02-11T03:11:12.707Z,12.37
2018-02-11T03:13:41.264Z,8.25
2018-02-11T03:16:09.627Z,9.45
2018-02-11T03:18:37.991Z,10.27
2018-02-11T03:21:06.355Z,8.13
2018-02-11T03:23:34.724Z,12.00
2018-02-11T03:26:03.098Z,11.95
2018-02-11T03:28:31.451Z,10.63
2018-02-11T03:30:59.802Z,7.95
2018-02-11T03:33:28.194Z,10.50
2018-02-11T03:35:56.563Z,5.82
2018-02-11T03:38:25.192Z,6.65
2018-02-11T03:40:53.562Z,15.25
2018-02-11T03:43:21.913Z,7.07
2018-02-11T03:45:50.281Z,7.30
2018-02-11T03:48:17.930Z,10.02
2018-02-11T03:50:46.124Z,11.80
2018-02-11T03:53:14.526Z,9.00
2018-02-11T03:55:42.888Z,10.02
2018-02-11T03:58:11.241Z,7.87
2018-02-11T04:00:39.599Z,10.95
2018-02-11T04:03:07.955Z,13.77
2018-02-11T04:05:36.337Z,8.57
2018-02-11T04:08:04.685Z,8.55
2018-02-11T04:10:33.177Z,10.25
2018-02-11T04:13:01.547Z,7.72
2018-02-11T04:15:29.911Z,8.40
2018-02-11T04:17:58.272Z,13.60
2018-02-11T04:20:26.630Z,12.00
2018-02-11T04:22:55.042Z,9.52
2018-02-11T04:25:23.511Z,14.95
2018-02-11T04:27:51.881Z,11.20
2018-02-11T04:30:20.269Z,11.45
2018-02-11T04:32:48.643Z,11.57
2018-02-11T04:35:17.058Z,9.57
2018-02-11T04:37:45.414Z,8.07
2018-02-11T04:40:13.775Z,8.73
2018-02-11T04:42:42.147Z,11.63
2018-02-11T04:45:10.503Z,9.98
2018-02-11T04:47:38.864Z,7.12
2018-02-11T04:50:07.236Z,8.65
2018-02-11T04:52:35.624Z,9.07
2018-02-11T04:55:03.987Z,9.95
2018-02-11T04:57:32.460Z,7.15
2018-02-11T05:00:00.854Z,7.30
2018-02-11T05:02:29.243Z,10.15
2018-02-11T05:04:57.769Z,8.52
2018-02-11T05:07:26.153Z,8.00
2018-02-11T05:09:54.549Z,9.18
2018-02-11T05:12:23.000Z,5.57
2018-02-11T05:14:51.398Z,5.30
2018-02-11T05:17:19.791Z,8.50
2018-02-11T05:19:48.405Z,11.60
2018-02-11T05:22:16.794Z,9.60
2018-02-11T05:24:45.184Z,10.00
2018-02-11T05:27:13.650Z,8.73
2018-02-11T05:29:42.027Z,5.93
2018-02-11T05:32:10.440Z,6.32
2018-02-11T05:34:38.885Z,6.80
2018-02-11T05:37:07.278Z,7.70
2018-02-11T05:39:35.690Z,13.50
2018-02-11T05:42:04.130Z,5.68
2018-02-11T05:44:32.525Z,9.60
2018-02-11T05:47:00.913Z,7.55
2018-02-11T05:49:29.320Z,7.50
2018-02-11T05:51:57.755Z,7.87
2018-02-11T05:54:26.197Z,8.20
2018-02-11T05:56:54.575Z,9.55
2018-02-11T05:59:23.239Z,8.13
2018-02-11T06:01:51.605Z,6.90
2018-02-11T06:04:20.013Z,4.57
2018-02-11T06:06:48.432Z,4.90
2018-02-11T06:09:16.822Z,8.32
2018-02-11T06:11:45.274Z,5.45
2018-02-11T06:14:13.653Z,8.15
2018-02-11T06:16:42.058Z,9.57
2018-02-11T06:19:10.440Z,6.07
2018-02-11T06:21:38.843Z,4.40
2018-02-11T06:24:07.394Z,5.72
2018-02-11T06:26:42.596Z,5.22
2018-02-11T06:29:11.076Z,7.57
2018-02-11T06:31:39.554Z,6.90
2018-02-11T06:34:07.931Z,4.40
2018-02-11T06:36:36.420Z,6.40
2018-02-11T06:39:04.807Z,8.80
2018-02-11T06:41:33.200Z,3.92
2018-02-11T06:44:01.650Z,6.53
2018-02-11T06:46:30.039Z,6.40
2018-02-11T06:48:58.527Z,5.03
2018-02-11T06:51:26.969Z,6.05
2018-02-11T06:53:55.386Z,6.12
2018-02-11T06:56:23.769Z,6.12
2018-02-11T06:58:52.210Z,5.75
2018-02-11T07:01:20.622Z,9.32
2018-02-11T07:03:49.098Z,6.70
2018-02-11T07:06:17.568Z,5.60
2018-02-11T07:08:45.976Z,6.97
2018-02-11T07:11:14.354Z,6.57
2018-02-11T07:13:42.827Z,4.07
2018-02-11T07:16:11.213Z,6.35
2018-02-11T07:18:39.610Z,5.10
2018-02-11T07:21:07.998Z,5.40
2018-02-11T07:23:36.401Z,5.22
2018-02-11T07:26:04.865Z,3.50
2018-02-11T07:28:33.269Z,3.03
2018-02-11T07:31:01.745Z,3.58
2018-02-11T07:33:30.193Z,3.15
2018-02-11T07:35:58.579Z,3.10
2018-02-11T07:38:26.963Z,2.03
2018-02-11T07:40:55.425Z,2.92
2018-02-11T07:43:23.824Z,2.45
2018-02-11T07:45:52.215Z,2.80
2018-02-11T07:48:20.633Z,3.47
2018-02-11T07:50:49.420Z,4.75
2018-02-11T07:53:17.823Z,2.20
2018-02-11T07:55:46.201Z,3.80
2018-02-11T07:58:14.592Z,2.97
2018-02-11T08:00:43.033Z,2.97
2018-02-11T08:03:11.413Z,2.30
2018-02-11T08:05:39.822Z,5.18
2018-02-11T08:08:08.239Z,1.95
2018-02-11T08:10:36.630Z,2.00
2018-02-11T08:13:05.208Z,2.97
2018-02-11T08:15:33.584Z,2.45
2018-02-11T08:18:01.990Z,2.15
2018-02-11T08:20:30.423Z,2.78
2018-02-11T08:22:58.831Z,2.05
2018-02-11T08:25:27.228Z,1.60
2018-02-11T08:27:55.609Z,1.40
2018-02-11T08:30:24.129Z,1.87
2018-02-11T08:32:52.532Z,1.48
2018-02-11T08:35:20.930Z,1.90
2018-02-11T08:37:49.353Z,1.70
2018-02-11T08:40:17.730Z,1.60
2018-02-11T08:42:46.207Z,1.65
2018-02-11T08:45:14.599Z,1.20
2018-02-11T08:47:43.089Z,1.77
2018-02-11T08:50:11.498Z,2.20
2018-02-11T08:52:39.899Z,1.30
2018-02-11T08:55:08.333Z,1.80
2018-02-11T08:57:36.786Z,2.37
2018-02-11T09:00:05.185Z,4.93
2018-02-11T09:02:33.585Z,1.27
2018-02-11T09:05:02.043Z,1.45
2018-02-11T09:07:29.782Z,1.27
2018-02-11T09:09:58.001Z,1.70
2018-02-11T09:12:26.439Z,2.10
2018-02-11T09:14:54.846Z,1.40
2018-02-11T09:17:23.396Z,1.40
2018-02-11T09:19:51.811Z,1.35
2018-02-11T09:22:20.473Z,1.27
2018-02-11T09:24:48.865Z,1.15
2018-02-11T09:27:17.391Z,2.15
2018-02-11T09:29:45.843Z,3.97
2018-02-11T09:32:14.269Z,1.62
2018-02-11T09:34:42.660Z,1.45
2018-02-11T09:37:11.057Z,3.60
2018-02-11T09:39:39.488Z,1.30
2018-02-11T09:42:08.321Z,2.15
2018-02-11T09:44:36.758Z,1.30
2018-02-11T09:47:05.231Z,1.20
2018-02-11T09:49:33.644Z,1.00
2018-02-11T09:52:02.043Z,1.05
2018-02-11T09:54:30.430Z,1.10
2018-02-11T09:56:58.843Z,0.98
2018-02-11T09:59:27.319Z,4.25
2018-02-11T10:01:55.722Z,1.60
2018-02-11T10:04:24.139Z,1.12
2018-02-11T10:06:52.531Z,0.80
2018-02-11T10:11:55.542Z,1.40
2018-02-11T10:14:23.957Z,1.05
2018-02-11T10:16:52.373Z,1.25
2018-02-11T10:19:20.785Z,1.37
2018-02-11T10:21:49.238Z,1.27
2018-02-11T10:24:17.648Z,1.37
2018-02-11T10:26:46.114Z,1.12
2018-02-11T10:29:14.578Z,1.60
2018-02-11T10:31:42.974Z,1.60
2018-02-11T10:34:11.411Z,2.15
2018-02-11T10:36:39.963Z,2.45
2018-02-11T10:39:08.368Z,2.22
2018-02-11T10:41:36.768Z,6.03
2018-02-11T10:44:05.164Z,2.05
2018-02-11T10:46:33.681Z,9.23
2018-02-11T10:49:02.186Z,4.60
2018-02-11T10:51:30.686Z,2.17
2018-02-11T10:53:59.068Z,1.70
2018-02-11T10:56:27.483Z,7.80
2018-02-11T10:58:56.244Z,2.40
2018-02-11T11:01:24.730Z,3.25
2018-02-11T11:03:53.190Z,2.10
2018-02-11T11:06:21.592Z,3.95
2018-02-11T11:08:50.090Z,2.40
2018-02-11T11:11:18.688Z,1.85
2018-02-11T11:13:47.150Z,8.70
2018-02-11T11:16:15.579Z,3.47
2018-02-11T11:18:43.996Z,2.30
2018-02-11T11:21:12.471Z,3.85
2018-02-11T11:23:40.862Z,3.15
2018-02-11T11:26:09.283Z,3.72
2018-02-11T11:28:37.677Z,3.00
2018-02-11T11:31:06.103Z,1.98
2018-02-11T11:33:34.595Z,3.50
2018-02-11T11:36:02.998Z,2.50
2018-02-11T11:38:31.377Z,1.98
2018-02-11T11:40:59.949Z,2.17
2018-02-11T11:43:28.425Z,2.30
2018-02-11T11:45:56.820Z,5.82
2018-02-11T11:48:25.214Z,2.65
2018-02-11T11:50:53.609Z,3.10
2018-02-11T11:53:22.002Z,2.85
2018-02-11T11:55:50.493Z,4.57
2018-02-11T11:58:18.909Z,5.12
2018-02-11T12:00:47.335Z,10.93
2018-02-11T12:03:15.736Z,6.28
2018-02-11T12:05:44.248Z,3.58
2018-02-11T12:08:12.682Z,5.87
2018-02-11T12:10:41.096Z,6.72
2018-02-11T12:13:09.570Z,4.85
2018-02-11T12:15:37.980Z,8.07
2018-02-11T12:18:06.509Z,3.67
2018-02-11T12:20:34.939Z,2.58
2018-02-11T12:23:03.440Z,4.70
2018-02-11T12:25:31.989Z,2.40
2018-02-11T12:28:00.390Z,1.92
2018-02-11T12:30:28.810Z,1.60
2018-02-11T12:32:57.202Z,1.60
2018-02-11T12:35:25.634Z,1.50
2018-02-11T12:37:54.205Z,0.93
2018-02-11T12:40:22.633Z,3.00
2018-02-11T12:42:51.101Z,0.82
2018-02-11T12:45:19.494Z,1.02
2018-02-11T12:47:47.898Z,1.55
2018-02-11T12:50:16.290Z,1.23
2018-02-11T12:52:44.717Z,1.85
2018-02-11T12:55:13.253Z,1.10
2018-02-11T12:57:41.670Z,1.65
2018-02-11T13:00:10.067Z,0.95
2018-02-11T13:02:38.458Z,0.80
2018-02-11T13:05:06.849Z,1.50
2018-02-11T13:07:35.318Z,1.50
2018-02-11T13:10:03.724Z,4.82
2018-02-11T13:12:32.171Z,3.20
2018-02-11T13:15:00.582Z,2.90
2018-02-11T13:17:28.963Z,7.20
2018-02-11T13:19:57.364Z,5.50
2018-02-11T13:22:25.857Z,8.80
2018-02-11T13:24:54.301Z,9.25
2018-02-11T13:27:22.725Z,10.90
2018-02-11T13:29:51.129Z,16.60
2018-02-11T13:32:19.531Z,11.98
2018-02-11T13:34:48.017Z,16.50
2018-02-11T13:37:16.435Z,15.13
2018-02-11T13:39:44.945Z,11.52
2018-02-11T13:42:13.355Z,12.37
2018-02-11T13:44:41.774Z,13.60
2018-02-11T13:47:10.241Z,8.80
2018-02-11T13:49:38.666Z,9.82
2018-02-11T13:52:07.092Z,10.55
2018-02-11T13:54:35.514Z,11.30
2018-02-11T13:57:03.912Z,10.95
2018-02-11T13:59:32.360Z,12.23
2018-02-11T14:02:00.764Z,10.05
2018-02-11T14:04:30.231Z,10.48
2018-02-11T14:06:58.671Z,8.63
2018-02-11T14:09:27.103Z,7.37
2018-02-11T14:11:55.497Z,11.10
2018-02-11T14:14:23.921Z,6.80
2018-02-11T14:16:52.392Z,4.25
2018-02-11T14:19:21.001Z,7.47
2018-02-11T14:21:49.469Z,6.68
2018-02-11T14:24:17.843Z,7.32
2018-02-11T14:26:46.429Z,13.30
2018-02-11T14:29:15.083Z,9.90
2018-02-11T14:31:43.540Z,12.23
2018-02-11T14:34:12.042Z,10.50
2018-02-11T14:36:41.505Z,12.85
2018-02-11T14:39:09.998Z,10.20
2018-02-11T14:41:38.550Z,10.10
2018-02-11T14:44:06.973Z,8.63
2018-02-11T14:46:35.378Z,9.27
2018-02-11T14:49:03.797Z,7.45
2018-02-11T14:51:32.227Z,6.28
2018-02-11T14:54:00.716Z,14.30
2018-02-11T14:56:29.130Z,10.52
2018-02-11T14:58:57.548Z,10.80
2018-02-11T15:01:26.060Z,8.23
2018-02-11T15:03:54.459Z,4.47
2018-02-11T15:06:22.929Z,11.68
2018-02-11T15:08:51.357Z,7.32
2018-02-11T15:11:19.905Z,5.43
2018-02-11T15:13:48.303Z,6.32
2018-02-11T15:16:16.713Z,4.70
2018-02-11T15:18:45.102Z,6.50
2018-02-11T15:21:13.506Z,3.90
2018-02-11T15:23:42.098Z,6.20
2018-02-11T15:26:10.496Z,13.98
2018-02-11T15:28:38.914Z,5.00
2018-02-11T15:31:07.390Z,7.90
2018-02-11T15:33:35.888Z,15.10
2018-02-11T15:36:04.452Z,25.52
2018-02-11T15:38:32.881Z,11.38
2018-02-11T15:41:01.371Z,9.70
2018-02-11T15:43:29.762Z,6.97
2018-02-11T15:45:58.168Z,24.35
2018-02-11T15:48:26.567Z,10.40
2018-02-11T15:50:55.013Z,5.30
2018-02-11T15:53:23.470Z,8.60
2018-02-11T15:55:51.890Z,10.15
2018-02-11T15:58:20.306Z,3.70
2018-02-11T16:00:48.738Z,7.55
2018-02-11T16:03:17.171Z,12.82
2018-02-11T16:05:45.607Z,7.03
2018-02-11T16:08:14.003Z,8.57
2018-02-11T16:10:42.650Z,8.25
2018-02-11T16:13:11.091Z,7.80
2018-02-11T16:15:39.496Z,6.22
2018-02-11T16:18:07.910Z,9.90
2018-02-11T16:20:36.310Z,8.20
2018-02-11T16:23:05.092Z,8.30
2018-02-11T16:25:33.479Z,9.23
2018-02-11T16:28:01.883Z,9.85
2018-02-11T16:30:30.303Z,6.68
2018-02-11T16:32:58.711Z,8.18
2018-02-11T16:35:27.135Z,11.73
2018-02-11T16:37:55.589Z,14.87
2018-02-11T16:40:24.057Z,8.20
2018-02-11T16:42:52.569Z,10.43
2018-02-11T16:45:22.301Z,9.75
2018-02-11T16:47:50.707Z,9.18
2018-02-11T16:50:19.149Z,12.10
2018-02-11T16:52:47.660Z,9.75
2018-02-11T16:55:16.047Z,11.70
2018-02-11T16:57:44.481Z,11.80
2018-02-11T17:00:12.894Z,20.17
2018-02-11T17:02:41.334Z,17.52
2018-02-11T17:05:09.911Z,9.90
2018-02-11T17:07:38.316Z,13.98
2018-02-11T17:10:06.792Z,17.50
2018-02-11T17:12:35.219Z,16.52
2018-02-11T17:15:03.708Z,16.98
2018-02-11T17:17:32.319Z,12.25
2018-02-11T17:20:00.822Z,9.98
2018-02-11T17:22:29.356Z,14.00
2018-02-11T17:24:57.751Z,8.70
2018-02-11T17:27:26.148Z,15.75
2018-02-11T17:29:54.628Z,17.15
2018-02-11T17:32:23.115Z,13.25
2018-02-11T17:34:51.527Z,16.70
2018-02-11T17:37:19.925Z,16.02
2018-02-11T17:39:48.466Z,13.43
2018-02-11T17:42:17.223Z,21.87
2018-02-11T17:44:45.634Z,19.10
2018-02-11T17:47:14.066Z,15.50
2018-02-11T17:49:42.486Z,18.73
2018-02-11T17:52:10.908Z,16.87
2018-02-11T17:54:39.526Z,14.30
2018-02-11T17:57:07.950Z,13.73
2018-02-11T17:59:36.372Z,19.80
2018-02-11T18:02:05.229Z,11.10
2018-02-11T18:04:33.710Z,12.95
2018-02-11T18:07:02.189Z,14.73
2018-02-11T18:09:30.579Z,18.58
2018-02-11T18:11:58.975Z,20.73
2018-02-11T18:14:27.366Z,17.90
2018-02-11T18:16:55.782Z,17.67
2018-02-11T18:19:24.227Z,12.50
2018-02-11T18:21:52.640Z,11.12
2018-02-11T18:24:21.445Z,14.75
2018-02-11T18:26:49.934Z,16.73
2018-02-11T18:29:18.334Z,15.43
2018-02-11T18:31:46.817Z,15.85
2018-02-11T18:34:15.217Z,23.65
2018-02-11T18:36:43.782Z,18.55
2018-02-11T18:39:12.200Z,16.05
2018-02-11T18:41:40.619Z,12.32
2018-02-11T18:44:09.040Z,10.85
2018-02-11T18:46:37.537Z,10.07
2018-02-11T18:49:06.025Z,9.25
2018-02-11T18:51:34.450Z,14.13
2018-02-11T18:54:03.227Z,18.83
2018-02-11T18:56:31.681Z,12.48
2018-02-11T18:59:00.113Z,13.45
2018-02-11T19:01:28.555Z,19.37
2018-02-11T19:03:56.957Z,12.37
2018-02-11T19:06:25.467Z,16.65
2018-02-11T19:08:53.889Z,13.80
2018-02-11T19:11:22.323Z,18.27
2018-02-11T19:13:50.744Z,16.70
2018-02-11T19:16:19.241Z,18.70
2018-02-11T19:18:50.350Z,17.83
2018-02-11T19:21:18.769Z,15.05
2018-02-11T19:23:47.214Z,15.75
2018-02-11T19:26:15.646Z,21.00
2018-02-11T19:28:44.139Z,18.33
2018-02-11T19:31:12.624Z,22.60
2018-02-11T19:33:41.023Z,19.87
2018-02-11T19:36:10.574Z,17.58
2018-02-11T19:38:39.167Z,19.05
2018-02-11T19:41:07.725Z,23.38
2018-02-11T19:43:36.118Z,17.52
2018-02-11T19:46:04.597Z,18.73
2018-02-11T19:48:32.990Z,12.82
2018-02-11T19:51:02.387Z,17.45
2018-02-11T19:53:30.860Z,19.35
2018-02-11T19:55:59.245Z,17.02
2018-02-11T19:58:27.700Z,13.30
2018-02-11T20:00:56.100Z,14.70
2018-02-11T20:03:24.529Z,14.43
2018-02-11T20:05:52.992Z,15.55
2018-02-11T20:08:21.418Z,17.73
2018-02-11T20:10:49.811Z,15.13
2018-02-11T20:13:18.305Z,14.63
2018-02-11T20:15:46.689Z,16.77
2018-02-11T20:18:15.100Z,16.70
2018-02-11T20:20:43.490Z,19.23
2018-02-11T20:23:11.900Z,12.45
2018-02-11T20:25:40.399Z,15.95
2018-02-11T20:28:08.807Z,15.35
2018-02-11T20:30:37.339Z,18.98
2018-02-11T20:33:05.743Z,13.25
2018-02-11T20:35:34.259Z,13.73
2018-02-11T20:38:02.655Z,16.92
2018-02-11T20:40:31.060Z,16.35
2018-02-11T20:42:59.522Z,20.77
2018-02-11T20:45:27.919Z,25.65
2018-02-11T20:47:56.330Z,16.00
2018-02-11T20:50:24.725Z,17.80
2018-02-11T20:52:53.119Z,24.20
2018-02-11T20:55:21.680Z,21.17
2018-02-11T20:57:50.103Z,16.50
2018-02-11T21:00:18.590Z,21.95
2018-02-11T21:02:46.991Z,18.00
2018-02-11T21:05:15.387Z,15.48
2018-02-11T21:07:44.169Z,19.42
2018-02-11T21:12:47.292Z,17.33
2018-02-11T21:15:15.693Z,13.70
2018-02-11T21:17:44.091Z,18.05
2018-02-11T21:20:12.586Z,19.15
2018-02-11T21:22:40.987Z,21.48
2018-02-11T21:25:09.767Z,15.50
2018-02-11T21:27:38.154Z,16.60
2018-02-11T21:30:06.655Z,22.87
2018-02-11T21:32:35.052Z,19.12
2018-02-11T21:35:03.447Z,19.10
2018-02-11T21:37:32.192Z,20.30
2018-02-11T21:40:00.599Z,19.77
2018-02-11T21:42:29.015Z,22.85
2018-02-11T21:44:57.415Z,20.50
2018-02-11T21:47:25.816Z,15.45
2018-02-11T21:49:54.236Z,21.73
2018-02-11T21:52:23.397Z,19.98
2018-02-11T21:54:51.969Z,18.30
2018-02-11T21:57:20.381Z,17.62
2018-02-11T21:59:48.774Z,17.60
2018-02-11T22:02:17.183Z,18.05
2018-02-11T22:04:45.653Z,19.15
2018-02-11T22:07:14.253Z,19.45
2018-02-11T22:09:42.678Z,33.08
2018-02-11T22:12:11.090Z,21.02
2018-02-11T22:14:39.498Z,22.45
2018-02-11T22:17:07.911Z,24.95
2018-02-11T22:19:35.729Z,24.83
2018-02-11T22:22:03.990Z,30.37
2018-02-11T22:24:32.374Z,26.55
2018-02-11T22:27:00.791Z,19.05
2018-02-11T22:29:29.191Z,20.85
2018-02-11T22:31:57.749Z,24.60
2018-02-11T22:34:26.167Z,17.45
2018-02-11T22:36:54.613Z,31.77
2018-02-11T22:39:23.179Z,22.15
2018-02-11T22:41:51.567Z,18.27
2018-02-11T22:44:20.085Z,23.17
2018-02-11T22:46:48.474Z,17.08
2018-02-11T22:49:16.955Z,13.18
2018-02-11T22:51:45.335Z,22.87
2018-02-11T22:54:13.756Z,11.95
2018-02-11T22:56:42.164Z,16.40
2018-02-11T22:59:10.632Z,17.00
2018-02-11T23:01:39.089Z,19.45
2018-02-11T23:04:07.510Z,15.95
2018-02-11T23:06:35.914Z,19.80
2018-02-11T23:09:04.319Z,20.37
2018-02-11T23:11:32.737Z,16.50
2018-02-11T23:14:01.174Z,16.92
2018-02-11T23:16:29.562Z,20.70
2018-02-11T23:18:57.965Z,23.02
2018-02-11T23:21:26.384Z,15.52
2018-02-11T23:23:54.805Z,19.98
2018-02-11T23:26:23.326Z,20.45
2018-02-11T23:28:51.699Z,16.90
2018-02-11T23:31:20.095Z,20.73
2018-02-11T23:33:48.496Z,14.23
2018-02-11T23:36:16.904Z,20.85
2018-02-11T23:38:45.381Z,24.00
2018-02-11T23:41:13.768Z,22.83
2018-02-11T23:43:42.284Z,16.12
2018-02-11T23:46:10.668Z,20.40
2018-02-11T23:48:39.224Z,17.30
2018-02-11T23:51:07.607Z,16.27
2018-02-11T23:53:36.173Z,15.93
2018-02-11T23:56:04.569Z,21.70
2018-02-11T23:58:33.045Z,15.52
